Gibunker 100 — ZDIH6 — position and weather

sailwx.info

Track history (hours):
 
Tides and Currents Weather Stations Pressure Air Temp Water Temp Dewpoint Dewpoint Depression Visibility Wind Speed Wind Dir Waves Ship Positions

Gibunker 100

Last reported at 2017-Oct-17 05:39 UTC. Time now 2017-Oct-17 06:11 UTC.
Position N 36°09' W 005°26'.

Length 102 m; draft 5 m.

Type: Ship (hazmat cat C). MMSI: 236111477.

Date/timePositionNaut miles runAvg speedWind from/ knotsBaromVisibWave heightAir tempDewpointWater temp
2017-Oct-17 05:39N 36°09' W 005°26'0 0.0
2017-Oct-17 05:29N 36°09' W 005°26'0 0.0
2017-Oct-17 05:00N 36°09' W 005°26'0 0.0
2017-Oct-17 04:30N 36°09' W 005°26'0 0.0
2017-Oct-17 04:00N 36°09' W 005°26'2 4.4
2017-Oct-17 03:29N 36°08' W 005°24'2 4.8
2017-Oct-17 03:00N 36°05' W 005°24'0 0.0
2017-Oct-17 02:30N 36°05' W 005°24'0 0.0
2017-Oct-17 01:59N 36°05' W 005°24'0 0.1
2017-Oct-17 01:30N 36°05' W 005°24'0 0.0
2017-Oct-17 00:59N 36°05' W 005°24'0 0.1
2017-Oct-17 00:30N 36°05' W 005°24'0 0.0
2017-Oct-16 23:59N 36°05' W 005°24'0 0.0
2017-Oct-16 23:30N 36°05' W 005°24'0 0.1
2017-Oct-16 22:50N 36°05' W 005°24'0 0.2
2017-Oct-16 22:26N 36°05' W 005°24'0 0.0
2017-Oct-16 21:52N 36°05' W 005°24'0 0.1
2017-Oct-16 21:27N 36°05' W 005°24'1 1.6
2017-Oct-16 21:00N 36°06' W 005°25'2 4.4
2017-Oct-16 20:30N 36°08' W 005°25'0 0.1
2017-Oct-16 13:55N 36°08' W 005°26'1 0.1
2017-Oct-16 03:09N 36°09' W 005°25'0 2.2
2017-Oct-16 02:58N 36°10' W 005°25'0 0.0
2017-Oct-15 22:06N 36°10' W 005°26'1 3.9
2017-Oct-15 21:50N 36°09' W 005°25'1 3.7
2017-Oct-15 21:30N 36°08' W 005°25'0 0.2
2017-Oct-15 21:00N 36°08' W 005°25'0 0.0
2017-Oct-15 20:30N 36°08' W 005°25'0 0.0
2017-Oct-15 20:00N 36°08' W 005°25'0 0.0
2017-Oct-15 19:30N 36°08' W 005°25'0 0.0
2017-Oct-15 19:00N 36°08' W 005°25'0 0.0
2017-Oct-15 17:30N 36°08' W 005°25'2 1.2
2017-Oct-15 15:55N 36°06' W 005°24'0 0.0
2017-Oct-15 14:00N 36°06' W 005°24'0 0.0
2017-Oct-15 13:30N 36°06' W 005°24'0 0.0
2017-Oct-15 13:00N 36°06' W 005°24'0 0.1
2017-Oct-15 12:10N 36°06' W 005°24'0 0.0
2017-Oct-15 11:59N 36°06' W 005°24'0 0.1
2017-Oct-15 11:27N 36°06' W 005°24'0 0.1
2017-Oct-15 10:57N 36°06' W 005°24'0 0.1
2017-Oct-15 10:27N 36°06' W 005°24'0 0.1
2017-Oct-15 09:43N 36°06' W 005°24'0 0.0
2017-Oct-15 09:24N 36°06' W 005°24'0 0.0
2017-Oct-15 08:34N 36°06' W 005°24'0 0.2
2017-Oct-15 08:04N 36°06' W 005°24'0 2.1
2017-Oct-15 08:00N 36°06' W 005°25'1 2.2
2017-Oct-15 07:28N 36°05' W 005°24'0 0.0
2017-Oct-15 04:28N 36°05' W 005°24'0 0.0
2017-Oct-15 03:58N 36°05' W 005°24'0 0.0
2017-Oct-15 03:30N 36°05' W 005°24'0 0.0
2017-Oct-15 03:00N 36°05' W 005°24'0 0.0
2017-Oct-14 23:51N 36°05' W 005°24'1 1.7
2017-Oct-14 23:30N 36°05' W 005°24'2 4.3
2017-Oct-14 22:59N 36°08' W 005°25'1 0.2
2017-Oct-14 14:55N 36°08' W 005°26'0 0.0
2017-Oct-14 14:31N 36°08' W 005°26'0 0.0
2017-Oct-14 14:01N 36°08' W 005°26'0 0.0
2017-Oct-14 13:31N 36°08' W 005°26'0 0.1
2017-Oct-14 10:09N 36°08' W 005°26'0 0.0
2017-Oct-14 10:00N 36°08' W 005°26'0 0.0
2017-Oct-14 09:30N 36°08' W 005°26'0 0.0
2017-Oct-14 09:00N 36°08' W 005°26'0 0.0
2017-Oct-14 04:46N 36°08' W 005°26'0 0.0
2017-Oct-14 04:27N 36°08' W 005°26'0 0.0
2017-Oct-14 03:56N 36°08' W 005°26'0 0.0
2017-Oct-14 03:29N 36°08' W 005°26'0 0.0
2017-Oct-14 02:59N 36°08' W 005°26'0 0.0
2017-Oct-14 02:27N 36°08' W 005°26'0 0.0
2017-Oct-14 01:57N 36°08' W 005°26'0 0.0
2017-Oct-14 01:29N 36°08' W 005°26'0 0.0
2017-Oct-14 01:00N 36°08' W 005°26'0 0.0
2017-Oct-14 00:31N 36°08' W 005°26'1 0.2
2017-Oct-13 20:34N 36°08' W 005°25'0 0.1
2017-Oct-13 20:22N 36°08' W 005°25'0 0.0
2017-Oct-13 19:58N 36°08' W 005°25'3 0.3
2017-Oct-13 10:47N 36°06' W 005°24'0 0.0
2017-Oct-13 07:29N 36°06' W 005°24'0 0.2
2017-Oct-13 06:53N 36°06' W 005°24'0 0.1
2017-Oct-13 06:28N 36°06' W 005°24'0 0.1
2017-Oct-13 05:59N 36°06' W 005°24'0 0.0
2017-Oct-13 05:30N 36°06' W 005°24'0 0.2
2017-Oct-13 05:00N 36°06' W 005°24'3 5.0
2017-Oct-13 04:28N 36°09' W 005°25'1 0.1
2017-Oct-12 21:02N 36°09' W 005°26'0 1.8
2017-Oct-12 20:57N 36°09' W 005°26'1 1.5
2017-Oct-12 20:26N 36°08' W 005°26'0 0.0
2017-Oct-12 19:54N 36°08' W 005°26'0 0.0
2017-Oct-12 19:29N 36°08' W 005°26'0 0.0
2017-Oct-12 15:46N 36°08' W 005°26'0 0.0
2017-Oct-12 15:30N 36°08' W 005°26'0 0.0
2017-Oct-12 14:09N 36°08' W 005°26'0 0.0
2017-Oct-12 14:00N 36°08' W 005°26'0 0.0
2017-Oct-12 13:25N 36°08' W 005°26'0 0.1
2017-Oct-12 13:00N 36°08' W 005°26'1 0.1
2017-Oct-12 01:01N 36°08' W 005°26'0 0.4
2017-Oct-12 00:55N 36°08' W 005°26'1 2.4
2017-Oct-12 00:25N 36°08' W 005°25'2 5.8
2017-Oct-12 00:01N 36°06' W 005°25'0 0.3
2017-Oct-11 23:19N 36°06' W 005°25'0 0.1
2017-Oct-11 22:56N 36°06' W 005°25'0 0.1
2017-Oct-11 22:30N 36°06' W 005°25'0 0.1
2017-Oct-11 22:00N 36°06' W 005°25'0 0.1
2017-Oct-11 21:30N 36°06' W 005°25'0 0.0
2017-Oct-11 21:00N 36°06' W 005°25'0 0.1
2017-Oct-11 20:29N 36°06' W 005°25'0 0.0
2017-Oct-11 18:25N 36°06' W 005°25'4 0.2
2017-Oct-10 19:27N 36°10' W 005°25'0 0.0
2017-Oct-10 12:46N 36°10' W 005°25'2 5.6
2017-Oct-10 12:29N 36°09' W 005°24'3 6.3
2017-Oct-10 11:59N 36°06' W 005°24'1 1.1
2017-Oct-10 11:28N 36°05' W 005°24'0 0.1
2017-Oct-10 10:58N 36°05' W 005°24'0 0.1
2017-Oct-10 09:24N 36°05' W 005°24'  
Track history (hours):
 
Tides and Currents Weather Stations Pressure Air Temp Water Temp Dewpoint Dewpoint Depression Visibility Wind Speed Wind Dir Waves Ship Positions

Gibunker 100

Last reported at 2017-Oct-17 05:39 UTC. Time now 2017-Oct-17 06:11 UTC.
Position N 36°09' W 005°26'.

Length 102 m; draft 5 m.

Type: Ship (hazmat cat C). MMSI: 236111477.

Date/timePositionNaut miles runAvg speedWind from/ knotsBaromVisibWave heightAir tempDewpointWater temp
2017-Oct-17 05:39N 36°09' W 005°26'0 0.0
2017-Oct-17 05:29N 36°09' W 005°26'0 0.0
2017-Oct-17 05:00N 36°09' W 005°26'0 0.0
2017-Oct-17 04:30N 36°09' W 005°26'0 0.0
2017-Oct-17 04:00N 36°09' W 005°26'2 4.4
2017-Oct-17 03:29N 36°08' W 005°24'2 4.8
2017-Oct-17 03:00N 36°05' W 005°24'0 0.0
2017-Oct-17 02:30N 36°05' W 005°24'0 0.0
2017-Oct-17 01:59N 36°05' W 005°24'0 0.1
2017-Oct-17 01:30N 36°05' W 005°24'0 0.0
2017-Oct-17 00:59N 36°05' W 005°24'0 0.1
2017-Oct-17 00:30N 36°05' W 005°24'0 0.0
2017-Oct-16 23:59N 36°05' W 005°24'0 0.0
2017-Oct-16 23:30N 36°05' W 005°24'0 0.1
2017-Oct-16 22:50N 36°05' W 005°24'0 0.2
2017-Oct-16 22:26N 36°05' W 005°24'0 0.0
2017-Oct-16 21:52N 36°05' W 005°24'0 0.1
2017-Oct-16 21:27N 36°05' W 005°24'1 1.6
2017-Oct-16 21:00N 36°06' W 005°25'2 4.4
2017-Oct-16 20:30N 36°08' W 005°25'0 0.1
2017-Oct-16 13:55N 36°08' W 005°26'1 0.1
2017-Oct-16 03:09N 36°09' W 005°25'0 2.2
2017-Oct-16 02:58N 36°10' W 005°25'0 0.0
2017-Oct-15 22:06N 36°10' W 005°26'1 3.9
2017-Oct-15 21:50N 36°09' W 005°25'1 3.7
2017-Oct-15 21:30N 36°08' W 005°25'0 0.2
2017-Oct-15 21:00N 36°08' W 005°25'0 0.0
2017-Oct-15 20:30N 36°08' W 005°25'0 0.0
2017-Oct-15 20:00N 36°08' W 005°25'0 0.0
2017-Oct-15 19:30N 36°08' W 005°25'0 0.0
2017-Oct-15 19:00N 36°08' W 005°25'0 0.0
2017-Oct-15 17:30N 36°08' W 005°25'2 1.2
2017-Oct-15 15:55N 36°06' W 005°24'0 0.0
2017-Oct-15 14:00N 36°06' W 005°24'0 0.0
2017-Oct-15 13:30N 36°06' W 005°24'0 0.0
2017-Oct-15 13:00N 36°06' W 005°24'0 0.1
2017-Oct-15 12:10N 36°06' W 005°24'0 0.0
2017-Oct-15 11:59N 36°06' W 005°24'0 0.1
2017-Oct-15 11:27N 36°06' W 005°24'0 0.1
2017-Oct-15 10:57N 36°06' W 005°24'0 0.1
2017-Oct-15 10:27N 36°06' W 005°24'0 0.1
2017-Oct-15 09:43N 36°06' W 005°24'0 0.0
2017-Oct-15 09:24N 36°06' W 005°24'0 0.0
2017-Oct-15 08:34N 36°06' W 005°24'0 0.2
2017-Oct-15 08:04N 36°06' W 005°24'0 2.1
2017-Oct-15 08:00N 36°06' W 005°25'1 2.2
2017-Oct-15 07:28N 36°05' W 005°24'0 0.0
2017-Oct-15 04:28N 36°05' W 005°24'0 0.0
2017-Oct-15 03:58N 36°05' W 005°24'0 0.0
2017-Oct-15 03:30N 36°05' W 005°24'0 0.0
2017-Oct-15 03:00N 36°05' W 005°24'0 0.0
2017-Oct-14 23:51N 36°05' W 005°24'1 1.7
2017-Oct-14 23:30N 36°05' W 005°24'2 4.3
2017-Oct-14 22:59N 36°08' W 005°25'1 0.2
2017-Oct-14 14:55N 36°08' W 005°26'0 0.0
2017-Oct-14 14:31N 36°08' W 005°26'0 0.0
2017-Oct-14 14:01N 36°08' W 005°26'0 0.0
2017-Oct-14 13:31N 36°08' W 005°26'0 0.1
2017-Oct-14 10:09N 36°08' W 005°26'0 0.0
2017-Oct-14 10:00N 36°08' W 005°26'0 0.0
2017-Oct-14 09:30N 36°08' W 005°26'0 0.0
2017-Oct-14 09:00N 36°08' W 005°26'0 0.0
2017-Oct-14 04:46N 36°08' W 005°26'0 0.0
2017-Oct-14 04:27N 36°08' W 005°26'0 0.0
2017-Oct-14 03:56N 36°08' W 005°26'0 0.0
2017-Oct-14 03:29N 36°08' W 005°26'0 0.0
2017-Oct-14 02:59N 36°08' W 005°26'0 0.0
2017-Oct-14 02:27N 36°08' W 005°26'0 0.0
2017-Oct-14 01:57N 36°08' W 005°26'0 0.0
2017-Oct-14 01:29N 36°08' W 005°26'0 0.0
2017-Oct-14 01:00N 36°08' W 005°26'0 0.0
2017-Oct-14 00:31N 36°08' W 005°26'1 0.2
2017-Oct-13 20:34N 36°08' W 005°25'0 0.1
2017-Oct-13 20:22N 36°08' W 005°25'0 0.0
2017-Oct-13 19:58N 36°08' W 005°25'3 0.3
2017-Oct-13 10:47N 36°06' W 005°24'0 0.0
2017-Oct-13 07:29N 36°06' W 005°24'0 0.2
2017-Oct-13 06:53N 36°06' W 005°24'0 0.1
2017-Oct-13 06:28N 36°06' W 005°24'0 0.1
2017-Oct-13 05:59N 36°06' W 005°24'0 0.0
2017-Oct-13 05:30N 36°06' W 005°24'0 0.2
2017-Oct-13 05:00N 36°06' W 005°24'3 5.0
2017-Oct-13 04:28N 36°09' W 005°25'1 0.1
2017-Oct-12 21:02N 36°09' W 005°26'0 1.8
2017-Oct-12 20:57N 36°09' W 005°26'1 1.5
2017-Oct-12 20:26N 36°08' W 005°26'0 0.0
2017-Oct-12 19:54N 36°08' W 005°26'0 0.0
2017-Oct-12 19:29N 36°08' W 005°26'0 0.0
2017-Oct-12 15:46N 36°08' W 005°26'0 0.0
2017-Oct-12 15:30N 36°08' W 005°26'0 0.0
2017-Oct-12 14:09N 36°08' W 005°26'0 0.0
2017-Oct-12 14:00N 36°08' W 005°26'0 0.0
2017-Oct-12 13:25N 36°08' W 005°26'0 0.1
2017-Oct-12 13:00N 36°08' W 005°26'1 0.1
2017-Oct-12 01:01N 36°08' W 005°26'0 0.4
2017-Oct-12 00:55N 36°08' W 005°26'1 2.4
2017-Oct-12 00:25N 36°08' W 005°25'2 5.8
2017-Oct-12 00:01N 36°06' W 005°25'0 0.3
2017-Oct-11 23:19N 36°06' W 005°25'0 0.1
2017-Oct-11 22:56N 36°06' W 005°25'0 0.1
2017-Oct-11 22:30N 36°06' W 005°25'0 0.1
2017-Oct-11 22:00N 36°06' W 005°25'0 0.1
2017-Oct-11 21:30N 36°06' W 005°25'0 0.0
2017-Oct-11 21:00N 36°06' W 005°25'0 0.1
2017-Oct-11 20:29N 36°06' W 005°25'0 0.0
2017-Oct-11 18:25N 36°06' W 005°25'4 0.2
2017-Oct-10 19:27N 36°10' W 005°25'0 0.0
2017-Oct-10 12:46N 36°10' W 005°25'2 5.6
2017-Oct-10 12:29N 36°09' W 005°24'3 6.3
2017-Oct-10 11:59N 36°06' W 005°24'1 1.1
2017-Oct-10 11:28N 36°05' W 005°24'0 0.1
2017-Oct-10 10:58N 36°05' W 005°24'0 0.1
2017-Oct-10 09:24N 36°05' W 005°24'  

Dump ship's entire track history